Terminal Aerodrome Forecast
Issued by NWS

Home | Current Version | Previous Version | Text Only | Print | Product List | Glossary On
Versions: 1 2 3 4 5 6 7 8 9 10 11 12 13 14 15
000
FTUS43 KICT 051135
TAFCNU
TAF
KCNU 051135Z 0512/0612 15007KT P6SM SKC
     FM051600 17013KT P6SM FEW040
     FM060000 15007KT P6SM SKC=

USA.gov is the U.S. government's official web portal to all federal, state and local government web resources and services.